sensor_id;sensor_type;location;lat;lon;timestamp;P1;durP1;ratioP1;P2;durP2;ratioP2
69979;SDS011;57318;56.232;43.944;2023-03-01T00:01:25;3.65;;;1.50;;
69979;SDS011;57318;56.232;43.944;2023-03-01T00:03:54;5.50;;;1.65;;
69979;SDS011;57318;56.232;43.944;2023-03-01T00:06:20;3.60;;;1.25;;
69979;SDS011;57318;56.232;43.944;2023-03-01T00:08:47;4.70;;;1.70;;
69979;SDS011;57318;56.232;43.944;2023-03-01T00:11:16;2.53;;;1.20;;
69979;SDS011;57318;56.232;43.944;2023-03-01T00:13:45;4.70;;;1.67;;
69979;SDS011;57318;56.232;43.944;2023-03-01T00:16:16;3.00;;;1.40;;
69979;SDS011;57318;56.232;43.944;2023-03-01T00:18:47;4.90;;;1.52;;
69979;SDS011;57318;56.232;43.944;2023-03-01T00:21:12;3.70;;;1.50;;
69979;SDS011;57318;56.232;43.944;2023-03-01T00:23:38;3.92;;;1.25;;
69979;SDS011;57318;56.232;43.944;2023-03-01T00:26:08;3.83;;;1.10;;
69979;SDS011;57318;56.232;43.944;2023-03-01T00:28:37;8.35;;;1.45;;
69979;SDS011;57318;56.232;43.944;2023-03-01T00:31:03;5.63;;;1.43;;
69979;SDS011;57318;56.232;43.944;2023-03-01T00:33:30;5.28;;;1.42;;
69979;SDS011;57318;56.232;43.944;2023-03-01T00:35:57;2.60;;;1.27;;
69979;SDS011;57318;56.232;43.944;2023-03-01T00:38:23;3.08;;;1.40;;
69979;SDS011;57318;56.232;43.944;2023-03-01T00:40:49;2.53;;;1.23;;
69979;SDS011;57318;56.232;43.944;2023-03-01T00:43:15;2.20;;;1.30;;
69979;SDS011;57318;56.232;43.944;2023-03-01T00:45:40;3.43;;;1.63;;
69979;SDS011;57318;56.232;43.944;2023-03-01T00:48:06;4.33;;;1.93;;
69979;SDS011;57318;56.232;43.944;2023-03-01T00:50:31;4.40;;;1.50;;
69979;SDS011;57318;56.232;43.944;2023-03-01T00:52:57;7.07;;;2.13;;
69979;SDS011;57318;56.232;43.944;2023-03-01T00:55:23;6.67;;;1.93;;
69979;SDS011;57318;56.232;43.944;2023-03-01T00:57:49;10.45;;;2.05;;
69979;SDS011;57318;56.232;43.944;2023-03-01T01:00:15;6.27;;;2.70;;
69979;SDS011;57318;56.232;43.944;2023-03-01T01:02:41;7.80;;;3.45;;
69979;SDS011;57318;56.232;43.944;2023-03-01T01:05:06;8.23;;;4.78;;
69979;SDS011;57318;56.232;43.944;2023-03-01T01:07:32;5.40;;;3.45;;
69979;SDS011;57318;56.232;43.944;2023-03-01T01:09:58;8.80;;;5.50;;
69979;SDS011;57318;56.232;43.944;2023-03-01T01:12:24;11.77;;;5.87;;
69979;SDS011;57318;56.232;43.944;2023-03-01T01:14:49;7.13;;;4.30;;
69979;SDS011;57318;56.232;43.944;2023-03-01T01:17:15;13.80;;;5.23;;
69979;SDS011;57318;56.232;43.944;2023-03-01T01:19:42;7.03;;;3.67;;
69979;SDS011;57318;56.232;43.944;2023-03-01T01:22:07;9.77;;;3.83;;
69979;SDS011;57318;56.232;43.944;2023-03-01T01:24:33;7.07;;;1.87;;
69979;SDS011;57318;56.232;43.944;2023-03-01T01:26:58;5.23;;;1.73;;
69979;SDS011;57318;56.232;43.944;2023-03-01T01:29:24;3.90;;;1.57;;
69979;SDS011;57318;56.232;43.944;2023-03-01T01:31:50;5.67;;;2.00;;
69979;SDS011;57318;56.232;43.944;2023-03-01T01:34:17;5.13;;;2.57;;
69979;SDS011;57318;56.232;43.944;2023-03-01T01:36:49;2.58;;;1.20;;
69979;SDS011;57318;56.232;43.944;2023-03-01T01:39:21;3.83;;;1.20;;
69979;SDS011;57318;56.232;43.944;2023-03-01T01:41:47;1.70;;;0.95;;
69979;SDS011;57318;56.232;43.944;2023-03-01T01:44:21;2.75;;;1.10;;
69979;SDS011;57318;56.232;43.944;2023-03-01T01:49:31;5.05;;;1.20;;
69979;SDS011;57318;56.232;43.944;2023-03-01T01:54:44;5.85;;;1.15;;
69979;SDS011;57318;56.232;43.944;2023-03-01T01:58:05;1.92;;;1.05;;
69979;SDS011;57318;56.232;43.944;2023-03-01T02:02:50;4.22;;;1.10;;
69979;SDS011;57318;56.232;43.944;2023-03-01T02:08:10;3.30;;;1.25;;
69979;SDS011;57318;56.232;43.944;2023-03-01T02:10:37;4.60;;;1.00;;
69979;SDS011;57318;56.232;43.944;2023-03-01T02:13:04;2.15;;;1.00;;
69979;SDS011;57318;56.232;43.944;2023-03-01T02:15:34;4.75;;;1.25;;
69979;SDS011;57318;56.232;43.944;2023-03-01T02:18:01;2.90;;;1.20;;
69979;SDS011;57318;56.232;43.944;2023-03-01T02:23:08;3.35;;;1.35;;
69979;SDS011;57318;56.232;43.944;2023-03-01T02:25:44;4.97;;;1.30;;
69979;SDS011;57318;56.232;43.944;2023-03-01T02:28:20;3.05;;;1.90;;
69979;SDS011;57318;56.232;43.944;2023-03-01T02:30:50;3.90;;;1.83;;
69979;SDS011;57318;56.232;43.944;2023-03-01T02:33:35;5.07;;;1.85;;
69979;SDS011;57318;56.232;43.944;2023-03-01T02:36:22;7.18;;;2.22;;
69979;SDS011;57318;56.232;43.944;2023-03-01T02:38:52;5.80;;;1.60;;
69979;SDS011;57318;56.232;43.944;2023-03-01T02:41:21;3.35;;;1.80;;
69979;SDS011;57318;56.232;43.944;2023-03-01T02:43:48;2.58;;;1.25;;
69979;SDS011;57318;56.232;43.944;2023-03-01T02:46:15;6.30;;;1.43;;
69979;SDS011;57318;56.232;43.944;2023-03-01T02:48:44;4.28;;;1.42;;
69979;SDS011;57318;56.232;43.944;2023-03-01T02:56:33;7.60;;;2.10;;
69979;SDS011;57318;56.232;43.944;2023-03-01T02:58:59;8.02;;;2.20;;
69979;SDS011;57318;56.232;43.944;2023-03-01T03:01:26;10.85;;;3.10;;
69979;SDS011;57318;56.232;43.944;2023-03-01T03:04:02;10.75;;;2.97;;
69979;SDS011;57318;56.232;43.944;2023-03-01T03:06:28;6.82;;;2.92;;
69979;SDS011;57318;56.232;43.944;2023-03-01T03:08:54;9.57;;;2.50;;
69979;SDS011;57318;56.232;43.944;2023-03-01T03:11:20;5.93;;;2.50;;
69979;SDS011;57318;56.232;43.944;2023-03-01T03:13:46;6.90;;;2.28;;
69979;SDS011;57318;56.232;43.944;2023-03-01T03:16:13;4.07;;;1.67;;
69979;SDS011;57318;56.232;43.944;2023-03-01T03:18:40;5.35;;;1.63;;
69979;SDS011;57318;56.232;43.944;2023-03-01T03:21:08;2.73;;;1.50;;
69979;SDS011;57318;56.232;43.944;2023-03-01T03:23:35;4.32;;;1.70;;
69979;SDS011;57318;56.232;43.944;2023-03-01T03:26:01;6.45;;;2.05;;
69979;SDS011;57318;56.232;43.944;2023-03-01T03:28:33;2.55;;;1.63;;
69979;SDS011;57318;56.232;43.944;2023-03-01T03:31:00;4.10;;;1.58;;
69979;SDS011;57318;56.232;43.944;2023-03-01T03:33:32;5.65;;;1.83;;
69979;SDS011;57318;56.232;43.944;2023-03-01T03:35:58;5.32;;;1.75;;
69979;SDS011;57318;56.232;43.944;2023-03-01T03:38:24;5.45;;;2.08;;
69979;SDS011;57318;56.232;43.944;2023-03-01T03:41:08;3.97;;;1.80;;
69979;SDS011;57318;56.232;43.944;2023-03-01T03:43:34;4.22;;;1.85;;
69979;SDS011;57318;56.232;43.944;2023-03-01T03:46:02;3.10;;;1.75;;
69979;SDS011;57318;56.232;43.944;2023-03-01T03:48:34;4.38;;;1.90;;
69979;SDS011;57318;56.232;43.944;2023-03-01T03:51:05;4.95;;;1.95;;
69979;SDS011;57318;56.232;43.944;2023-03-01T03:53:31;4.23;;;2.20;;
69979;SDS011;57318;56.232;43.944;2023-03-01T03:55:57;9.88;;;2.60;;
69979;SDS011;57318;56.232;43.944;2023-03-01T03:58:24;5.30;;;1.65;;
69979;SDS011;57318;56.232;43.944;2023-03-01T04:00:52;7.95;;;1.98;;
69979;SDS011;57318;56.232;43.944;2023-03-01T04:03:21;8.55;;;2.40;;
69979;SDS011;57318;56.232;43.944;2023-03-01T04:05:47;6.07;;;2.38;;
69979;SDS011;57318;56.232;43.944;2023-03-01T04:08:15;8.10;;;2.28;;
69979;SDS011;57318;56.232;43.944;2023-03-01T04:10:46;6.18;;;2.17;;
69979;SDS011;57318;56.232;43.944;2023-03-01T04:13:14;3.25;;;2.03;;
69979;SDS011;57318;56.232;43.944;2023-03-01T04:15:42;6.40;;;2.22;;
69979;SDS011;57318;56.232;43.944;2023-03-01T04:18:08;2.45;;;1.50;;
69979;SDS011;57318;56.232;43.944;2023-03-01T04:20:39;3.92;;;1.38;;
69979;SDS011;57318;56.232;43.944;2023-03-01T04:23:13;2.78;;;1.27;;
69979;SDS011;57318;56.232;43.944;2023-03-01T04:25:49;3.28;;;1.27;;
69979;SDS011;57318;56.232;43.944;2023-03-01T04:28:19;3.58;;;1.58;;
69979;SDS011;57318;56.232;43.944;2023-03-01T04:30:52;3.25;;;1.90;;
69979;SDS011;57318;56.232;43.944;2023-03-01T04:33:19;5.13;;;1.88;;
69979;SDS011;57318;56.232;43.944;2023-03-01T04:35:45;5.78;;;2.10;;
69979;SDS011;57318;56.232;43.944;2023-03-01T04:38:14;4.15;;;1.42;;
69979;SDS011;57318;56.232;43.944;2023-03-01T04:40:41;3.83;;;1.70;;
69979;SDS011;57318;56.232;43.944;2023-03-01T04:43:08;3.92;;;1.63;;
69979;SDS011;57318;56.232;43.944;2023-03-01T04:45:35;4.65;;;1.92;;
69979;SDS011;57318;56.232;43.944;2023-03-01T04:48:01;8.40;;;2.15;;
69979;SDS011;57318;56.232;43.944;2023-03-01T04:50:28;4.40;;;2.35;;
69979;SDS011;57318;56.232;43.944;2023-03-01T04:52:55;9.50;;;2.20;;
69979;SDS011;57318;56.232;43.944;2023-03-01T04:55:27;6.40;;;1.80;;
69979;SDS011;57318;56.232;43.944;2023-03-01T04:57:54;3.40;;;1.88;;
69979;SDS011;57318;56.232;43.944;2023-03-01T05:00:21;7.78;;;2.05;;
69979;SDS011;57318;56.232;43.944;2023-03-01T05:02:52;4.50;;;1.90;;
69979;SDS011;57318;56.232;43.944;2023-03-01T05:05:22;5.57;;;1.73;;
69979;SDS011;57318;56.232;43.944;2023-03-01T05:07:59;3.47;;;1.80;;
69979;SDS011;57318;56.232;43.944;2023-03-01T05:10:28;5.40;;;1.75;;
69979;SDS011;57318;56.232;43.944;2023-03-01T05:12:56;8.02;;;1.90;;
69979;SDS011;57318;56.232;43.944;2023-03-01T05:15:22;4.28;;;1.90;;
69979;SDS011;57318;56.232;43.944;2023-03-01T05:17:54;5.05;;;1.83;;
69979;SDS011;57318;56.232;43.944;2023-03-01T05:20:20;6.45;;;2.00;;
69979;SDS011;57318;56.232;43.944;2023-03-01T05:22:54;4.88;;;1.73;;
69979;SDS011;57318;56.232;43.944;2023-03-01T05:25:21;3.20;;;1.70;;
69979;SDS011;57318;56.232;43.944;2023-03-01T05:27:47;2.75;;;1.58;;
69979;SDS011;57318;56.232;43.944;2023-03-01T05:30:13;3.95;;;1.60;;
69979;SDS011;57318;56.232;43.944;2023-03-01T05:32:43;6.70;;;1.98;;
69979;SDS011;57318;56.232;43.944;2023-03-01T05:35:13;3.47;;;2.13;;
69979;SDS011;57318;56.232;43.944;2023-03-01T05:37:44;3.40;;;1.92;;
69979;SDS011;57318;56.232;43.944;2023-03-01T05:40:12;7.03;;;1.67;;
69979;SDS011;57318;56.232;43.944;2023-03-01T05:42:47;4.90;;;1.75;;
69979;SDS011;57318;56.232;43.944;2023-03-01T05:45:14;5.95;;;1.80;;
69979;SDS011;57318;56.232;43.944;2023-03-01T05:47:42;7.25;;;2.20;;
69979;SDS011;57318;56.232;43.944;2023-03-01T05:50:31;3.65;;;2.22;;
69979;SDS011;57318;56.232;43.944;2023-03-01T05:55:23;3.00;;;1.60;;
69979;SDS011;57318;56.232;43.944;2023-03-01T05:57:50;4.38;;;1.83;;
69979;SDS011;57318;56.232;43.944;2023-03-01T06:00:16;4.72;;;2.10;;
69979;SDS011;57318;56.232;43.944;2023-03-01T06:02:44;6.90;;;2.20;;
69979;SDS011;57318;56.232;43.944;2023-03-01T06:05:11;3.30;;;1.80;;
69979;SDS011;57318;56.232;43.944;2023-03-01T06:07:38;5.53;;;1.70;;
69979;SDS011;57318;56.232;43.944;2023-03-01T06:10:04;4.55;;;1.80;;
69979;SDS011;57318;56.232;43.944;2023-03-01T06:12:32;4.72;;;2.15;;
69979;SDS011;57318;56.232;43.944;2023-03-01T06:17:24;5.32;;;2.15;;
69979;SDS011;57318;56.232;43.944;2023-03-01T06:19:49;9.57;;;2.90;;
69979;SDS011;57318;56.232;43.944;2023-03-01T06:22:15;5.63;;;3.10;;
69979;SDS011;57318;56.232;43.944;2023-03-01T06:24:41;6.17;;;2.70;;
69979;SDS011;57318;56.232;43.944;2023-03-01T06:27:06;4.73;;;2.30;;
69979;SDS011;57318;56.232;43.944;2023-03-01T06:29:32;6.63;;;3.10;;
69979;SDS011;57318;56.232;43.944;2023-03-01T06:31:58;8.90;;;3.53;;
69979;SDS011;57318;56.232;43.944;2023-03-01T06:34:23;3.93;;;2.47;;
69979;SDS011;57318;56.232;43.944;2023-03-01T06:36:49;5.70;;;2.20;;
69979;SDS011;57318;56.232;43.944;2023-03-01T06:39:14;3.50;;;2.67;;
69979;SDS011;57318;56.232;43.944;2023-03-01T06:41:41;6.45;;;2.40;;
69979;SDS011;57318;56.232;43.944;2023-03-01T06:44:07;5.80;;;2.20;;
69979;SDS011;57318;56.232;43.944;2023-03-01T06:46:32;6.10;;;2.17;;
69979;SDS011;57318;56.232;43.944;2023-03-01T06:48:58;4.73;;;2.37;;
69979;SDS011;57318;56.232;43.944;2023-03-01T06:51:23;4.63;;;2.00;;
69979;SDS011;57318;56.232;43.944;2023-03-01T06:53:50;7.80;;;2.28;;
69979;SDS011;57318;56.232;43.944;2023-03-01T06:56:15;5.33;;;2.20;;
69979;SDS011;57318;56.232;43.944;2023-03-01T06:58:41;5.10;;;2.17;;
69979;SDS011;57318;56.232;43.944;2023-03-01T07:01:07;5.73;;;2.50;;
69979;SDS011;57318;56.232;43.944;2023-03-01T07:05:59;7.00;;;2.80;;
69979;SDS011;57318;56.232;43.944;2023-03-01T07:08:25;6.93;;;4.50;;
69979;SDS011;57318;56.232;43.944;2023-03-01T07:10:57;11.77;;;5.47;;
69979;SDS011;57318;56.232;43.944;2023-03-01T07:13:23;6.30;;;3.00;;
69979;SDS011;57318;56.232;43.944;2023-03-01T07:15:49;6.28;;;3.00;;
69979;SDS011;57318;56.232;43.944;2023-03-01T07:18:15;8.47;;;2.63;;
69979;SDS011;57318;56.232;43.944;2023-03-01T07:20:41;5.00;;;2.90;;
69979;SDS011;57318;56.232;43.944;2023-03-01T07:23:06;8.80;;;3.77;;
69979;SDS011;57318;56.232;43.944;2023-03-01T07:25:32;3.73;;;2.00;;
69979;SDS011;57318;56.232;43.944;2023-03-01T07:27:58;9.13;;;3.53;;
69979;SDS011;57318;56.232;43.944;2023-03-01T07:30:24;10.52;;;3.65;;
69979;SDS011;57318;56.232;43.944;2023-03-01T07:32:54;5.63;;;2.75;;
69979;SDS011;57318;56.232;43.944;2023-03-01T07:35:21;6.05;;;3.35;;
69979;SDS011;57318;56.232;43.944;2023-03-01T07:37:47;10.52;;;2.60;;
69979;SDS011;57318;56.232;43.944;2023-03-01T07:40:12;7.17;;;2.60;;
69979;SDS011;57318;56.232;43.944;2023-03-01T07:42:38;4.00;;;1.77;;
69979;SDS011;57318;56.232;43.944;2023-03-01T07:45:04;3.70;;;1.60;;
69979;SDS011;57318;56.232;43.944;2023-03-01T07:47:31;5.22;;;1.90;;
69979;SDS011;57318;56.232;43.944;2023-03-01T07:49:57;2.05;;;1.55;;
69979;SDS011;57318;56.232;43.944;2023-03-01T07:52:23;4.00;;;1.75;;
69979;SDS011;57318;56.232;43.944;2023-03-01T07:54:49;3.40;;;1.80;;
69979;SDS011;57318;56.232;43.944;2023-03-01T07:57:14;4.60;;;2.10;;
69979;SDS011;57318;56.232;43.944;2023-03-01T07:59:40;3.77;;;1.67;;
69979;SDS011;57318;56.232;43.944;2023-03-01T08:02:05;5.27;;;2.13;;
69979;SDS011;57318;56.232;43.944;2023-03-01T08:04:31;4.07;;;1.63;;
69979;SDS011;57318;56.232;43.944;2023-03-01T08:09:24;4.75;;;1.55;;
69979;SDS011;57318;56.232;43.944;2023-03-01T08:11:50;2.90;;;1.48;;
69979;SDS011;57318;56.232;43.944;2023-03-01T08:14:15;3.93;;;1.83;;
69979;SDS011;57318;56.232;43.944;2023-03-01T08:16:41;6.57;;;2.10;;
69979;SDS011;57318;56.232;43.944;2023-03-01T08:19:07;6.17;;;2.00;;
69979;SDS011;57318;56.232;43.944;2023-03-01T08:21:34;5.43;;;1.98;;
69979;SDS011;57318;56.232;43.944;2023-03-01T08:24:04;2.67;;;1.60;;
69979;SDS011;57318;56.232;43.944;2023-03-01T08:26:31;2.88;;;1.70;;
69979;SDS011;57318;56.232;43.944;2023-03-01T08:28:57;6.20;;;1.80;;
69979;SDS011;57318;56.232;43.944;2023-03-01T08:31:26;4.55;;;1.45;;
69979;SDS011;57318;56.232;43.944;2023-03-01T08:33:57;6.18;;;1.65;;
69979;SDS011;57318;56.232;43.944;2023-03-01T08:36:25;3.22;;;1.50;;
69979;SDS011;57318;56.232;43.944;2023-03-01T08:38:53;7.05;;;2.10;;
69979;SDS011;57318;56.232;43.944;2023-03-01T08:41:19;8.50;;;3.00;;
69979;SDS011;57318;56.232;43.944;2023-03-01T08:43:44;8.40;;;4.00;;
69979;SDS011;57318;56.232;43.944;2023-03-01T08:46:10;8.67;;;3.90;;
69979;SDS011;57318;56.232;43.944;2023-03-01T08:48:36;4.82;;;1.80;;
69979;SDS011;57318;56.232;43.944;2023-03-01T08:51:15;4.47;;;1.70;;
69979;SDS011;57318;56.232;43.944;2023-03-01T08:53:42;5.13;;;1.98;;
69979;SDS011;57318;56.232;43.944;2023-03-01T08:56:08;3.07;;;1.70;;
69979;SDS011;57318;56.232;43.944;2023-03-01T08:58:35;7.15;;;2.85;;
69979;SDS011;57318;56.232;43.944;2023-03-01T09:01:04;27.23;;;10.23;;
69979;SDS011;57318;56.232;43.944;2023-03-01T09:03:32;29.95;;;11.98;;
69979;SDS011;57318;56.232;43.944;2023-03-01T09:06:01;37.70;;;15.07;;
69979;SDS011;57318;56.232;43.944;2023-03-01T09:08:28;43.30;;;18.48;;
69979;SDS011;57318;56.232;43.944;2023-03-01T09:10:54;33.03;;;15.45;;
69979;SDS011;57318;56.232;43.944;2023-03-01T09:13:20;18.23;;;8.57;;
69979;SDS011;57318;56.232;43.944;2023-03-01T09:15:45;14.83;;;6.20;;
69979;SDS011;57318;56.232;43.944;2023-03-01T09:18:11;12.00;;;4.73;;
69979;SDS011;57318;56.232;43.944;2023-03-01T09:20:37;6.70;;;3.40;;
69979;SDS011;57318;56.232;43.944;2023-03-01T09:23:02;8.57;;;4.33;;
69979;SDS011;57318;56.232;43.944;2023-03-01T09:25:28;8.50;;;4.17;;
69979;SDS011;57318;56.232;43.944;2023-03-01T09:27:54;5.53;;;2.50;;
69979;SDS011;57318;56.232;43.944;2023-03-01T09:30:20;2.63;;;1.70;;
69979;SDS011;57318;56.232;43.944;2023-03-01T09:32:46;3.58;;;1.40;;
69979;SDS011;57318;56.232;43.944;2023-03-01T09:35:12;2.37;;;1.60;;
69979;SDS011;57318;56.232;43.944;2023-03-01T09:37:38;2.30;;;1.38;;
69979;SDS011;57318;56.232;43.944;2023-03-01T09:40:17;3.42;;;1.73;;
69979;SDS011;57318;56.232;43.944;2023-03-01T09:43:04;3.15;;;1.75;;
69979;SDS011;57318;56.232;43.944;2023-03-01T09:45:39;6.05;;;1.98;;
69979;SDS011;57318;56.232;43.944;2023-03-01T09:48:16;2.83;;;1.73;;
69979;SDS011;57318;56.232;43.944;2023-03-01T09:50:44;5.45;;;1.60;;
69979;SDS011;57318;56.232;43.944;2023-03-01T09:53:15;1.92;;;1.25;;
69979;SDS011;57318;56.232;43.944;2023-03-01T09:55:51;5.55;;;1.60;;
69979;SDS011;57318;56.232;43.944;2023-03-01T09:58:34;3.30;;;1.60;;
69979;SDS011;57318;56.232;43.944;2023-03-01T10:03:42;3.55;;;2.00;;
69979;SDS011;57318;56.232;43.944;2023-03-01T10:11:45;3.28;;;1.80;;
69979;SDS011;57318;56.232;43.944;2023-03-01T10:19:46;5.97;;;3.20;;
69979;SDS011;57318;56.232;43.944;2023-03-01T10:22:16;9.57;;;3.03;;
69979;SDS011;57318;56.232;43.944;2023-03-01T10:24:48;4.68;;;1.77;;
69979;SDS011;57318;56.232;43.944;2023-03-01T10:30:32;1.55;;;1.15;;
69979;SDS011;57318;56.232;43.944;2023-03-01T10:32:36;4.13;;;1.35;;
69979;SDS011;57318;56.232;43.944;2023-03-01T10:38:05;4.43;;;1.58;;
69979;SDS011;57318;56.232;43.944;2023-03-01T10:40:33;7.13;;;2.08;;
69979;SDS011;57318;56.232;43.944;2023-03-01T10:43:04;4.88;;;2.08;;
69979;SDS011;57318;56.232;43.944;2023-03-01T10:45:37;7.47;;;2.50;;
69979;SDS011;57318;56.232;43.944;2023-03-01T10:58:32;5.22;;;1.90;;
69979;SDS011;57318;56.232;43.944;2023-03-01T11:01:00;5.32;;;2.05;;
69979;SDS011;57318;56.232;43.944;2023-03-01T11:04:24;4.88;;;1.90;;
69979;SDS011;57318;56.232;43.944;2023-03-01T11:06:43;2.55;;;1.30;;
69979;SDS011;57318;56.232;43.944;2023-03-01T11:09:15;3.13;;;1.50;;
69979;SDS011;57318;56.232;43.944;2023-03-01T11:11:52;3.83;;;1.48;;
69979;SDS011;57318;56.232;43.944;2023-03-01T11:14:23;2.50;;;1.63;;
69979;SDS011;57318;56.232;43.944;2023-03-01T11:22:54;6.20;;;1.70;;
69979;SDS011;57318;56.232;43.944;2023-03-01T11:25:24;2.78;;;1.55;;
69979;SDS011;57318;56.232;43.944;2023-03-01T11:27:52;3.28;;;1.80;;
69979;SDS011;57318;56.232;43.944;2023-03-01T11:33:01;2.47;;;1.40;;
69979;SDS011;57318;56.232;43.944;2023-03-01T11:35:37;4.78;;;1.80;;
69979;SDS011;57318;56.232;43.944;2023-03-01T11:40:40;4.80;;;1.67;;
69979;SDS011;57318;56.232;43.944;2023-03-01T11:43:22;2.05;;;1.63;;
69979;SDS011;57318;56.232;43.944;2023-03-01T11:54:41;1.88;;;1.58;;
69979;SDS011;57318;56.232;43.944;2023-03-01T12:03:08;3.10;;;1.65;;
69979;SDS011;57318;56.232;43.944;2023-03-01T12:08:33;3.55;;;1.73;;
69979;SDS011;57318;56.232;43.944;2023-03-01T12:19:12;2.28;;;1.20;;
69979;SDS011;57318;56.232;43.944;2023-03-01T12:22:00;5.28;;;1.40;;
69979;SDS011;57318;56.232;43.944;2023-03-01T12:24:33;1.95;;;1.15;;
69979;SDS011;57318;56.232;43.944;2023-03-01T12:35:20;3.85;;;1.40;;
69979;SDS011;57318;56.232;43.944;2023-03-01T12:40:41;2.97;;;1.52;;
69979;SDS011;57318;56.232;43.944;2023-03-01T12:49:26;4.20;;;2.03;;
69979;SDS011;57318;56.232;43.944;2023-03-01T12:52:01;1.85;;;1.33;;
69979;SDS011;57318;56.232;43.944;2023-03-01T12:54:38;3.47;;;1.50;;
69979;SDS011;57318;56.232;43.944;2023-03-01T12:57:15;3.67;;;1.47;;
69979;SDS011;57318;56.232;43.944;2023-03-01T13:02:26;2.25;;;1.52;;
69979;SDS011;57318;56.232;43.944;2023-03-01T13:10:47;3.75;;;2.10;;
69979;SDS011;57318;56.232;43.944;2023-03-01T13:13:20;4.07;;;1.90;;
69979;SDS011;57318;56.232;43.944;2023-03-01T13:15:47;3.47;;;1.48;;
69979;SDS011;57318;56.232;43.944;2023-03-01T13:20:47;2.70;;;2.15;;
69979;SDS011;57318;56.232;43.944;2023-03-01T13:26:18;3.45;;;1.50;;
69979;SDS011;57318;56.232;43.944;2023-03-01T13:36:55;2.92;;;1.38;;
69979;SDS011;57318;56.232;43.944;2023-03-01T13:41:52;1.58;;;1.30;;
69979;SDS011;57318;56.232;43.944;2023-03-01T13:46:49;4.18;;;1.98;;
69979;SDS011;57318;56.232;43.944;2023-03-01T13:49:34;5.13;;;2.63;;
69979;SDS011;57318;56.232;43.944;2023-03-01T13:52:20;6.10;;;2.75;;
69979;SDS011;57318;56.232;43.944;2023-03-01T13:57:59;7.30;;;3.28;;
69979;SDS011;57318;56.232;43.944;2023-03-01T14:00:30;5.18;;;2.13;;
69979;SDS011;57318;56.232;43.944;2023-03-01T14:03:05;4.55;;;2.30;;
69979;SDS011;57318;56.232;43.944;2023-03-01T14:05:43;4.40;;;1.88;;
69979;SDS011;57318;56.232;43.944;2023-03-01T14:08:28;4.82;;;2.88;;
69979;SDS011;57318;56.232;43.944;2023-03-01T14:13:43;3.85;;;1.77;;
69979;SDS011;57318;56.232;43.944;2023-03-01T14:19:21;2.53;;;1.90;;
69979;SDS011;57318;56.232;43.944;2023-03-01T14:24:44;5.13;;;1.80;;
69979;SDS011;57318;56.232;43.944;2023-03-01T14:27:14;5.05;;;1.92;;
69979;SDS011;57318;56.232;43.944;2023-03-01T14:29:41;3.35;;;1.65;;
69979;SDS011;57318;56.232;43.944;2023-03-01T14:32:26;3.70;;;1.97;;
69979;SDS011;57318;56.232;43.944;2023-03-01T14:34:52;6.85;;;2.60;;
69979;SDS011;57318;56.232;43.944;2023-03-01T14:37:22;6.17;;;2.10;;
69979;SDS011;57318;56.232;43.944;2023-03-01T14:39:54;2.17;;;1.40;;
69979;SDS011;57318;56.232;43.944;2023-03-01T14:44:48;6.53;;;1.90;;
69979;SDS011;57318;56.232;43.944;2023-03-01T14:47:25;2.97;;;1.63;;
69979;SDS011;57318;56.232;43.944;2023-03-01T14:50:01;4.85;;;1.92;;
69979;SDS011;57318;56.232;43.944;2023-03-01T14:52:41;6.07;;;1.98;;
69979;SDS011;57318;56.232;43.944;2023-03-01T14:55:17;6.93;;;2.88;;
69979;SDS011;57318;56.232;43.944;2023-03-01T14:57:49;6.45;;;2.45;;
69979;SDS011;57318;56.232;43.944;2023-03-01T15:00:24;4.50;;;2.30;;
69979;SDS011;57318;56.232;43.944;2023-03-01T15:02:54;3.13;;;1.90;;
69979;SDS011;57318;56.232;43.944;2023-03-01T15:05:29;7.68;;;2.40;;
69979;SDS011;57318;56.232;43.944;2023-03-01T15:07:59;4.20;;;2.10;;
69979;SDS011;57318;56.232;43.944;2023-03-01T15:10:28;6.20;;;2.22;;
69979;SDS011;57318;56.232;43.944;2023-03-01T15:12:55;8.10;;;2.15;;
69979;SDS011;57318;56.232;43.944;2023-03-01T15:15:36;5.65;;;1.70;;
69979;SDS011;57318;56.232;43.944;2023-03-01T15:18:05;4.55;;;1.80;;
69979;SDS011;57318;56.232;43.944;2023-03-01T15:20:39;6.63;;;2.05;;
69979;SDS011;57318;56.232;43.944;2023-03-01T15:23:04;6.93;;;2.08;;
69979;SDS011;57318;56.232;43.944;2023-03-01T15:25:31;10.55;;;2.28;;
69979;SDS011;57318;56.232;43.944;2023-03-01T15:27:58;4.60;;;2.10;;
69979;SDS011;57318;56.232;43.944;2023-03-01T15:30:34;4.43;;;1.80;;
69979;SDS011;57318;56.232;43.944;2023-03-01T15:35:52;4.82;;;2.03;;
69979;SDS011;57318;56.232;43.944;2023-03-01T15:40:58;5.05;;;1.95;;
69979;SDS011;57318;56.232;43.944;2023-03-01T15:46:18;3.83;;;2.17;;
69979;SDS011;57318;56.232;43.944;2023-03-01T15:48:49;4.90;;;2.20;;
69979;SDS011;57318;56.232;43.944;2023-03-01T15:51:17;7.00;;;2.40;;
69979;SDS011;57318;56.232;43.944;2023-03-01T15:53:47;3.42;;;1.70;;
69979;SDS011;57318;56.232;43.944;2023-03-01T15:56:16;3.25;;;1.70;;
69979;SDS011;57318;56.232;43.944;2023-03-01T15:58:42;5.17;;;2.10;;
69979;SDS011;57318;56.232;43.944;2023-03-01T16:01:11;5.57;;;2.30;;
69979;SDS011;57318;56.232;43.944;2023-03-01T16:03:42;2.55;;;1.75;;
69979;SDS011;57318;56.232;43.944;2023-03-01T16:06:10;5.05;;;1.88;;
69979;SDS011;57318;56.232;43.944;2023-03-01T16:08:37;5.43;;;2.63;;
69979;SDS011;57318;56.232;43.944;2023-03-01T16:13:40;3.65;;;1.90;;
69979;SDS011;57318;56.232;43.944;2023-03-01T16:16:06;4.53;;;2.33;;
69979;SDS011;57318;56.232;43.944;2023-03-01T16:20:58;3.30;;;1.85;;
69979;SDS011;57318;56.232;43.944;2023-03-01T16:23:24;5.72;;;1.90;;
69979;SDS011;57318;56.232;43.944;2023-03-01T16:25:50;6.10;;;2.73;;
69979;SDS011;57318;56.232;43.944;2023-03-01T16:28:16;4.57;;;2.50;;
69979;SDS011;57318;56.232;43.944;2023-03-01T16:30:45;6.75;;;2.33;;
69979;SDS011;57318;56.232;43.944;2023-03-01T16:33:13;9.13;;;2.90;;
69979;SDS011;57318;56.232;43.944;2023-03-01T16:35:40;6.63;;;2.97;;
69979;SDS011;57318;56.232;43.944;2023-03-01T16:38:06;7.25;;;3.20;;
69979;SDS011;57318;56.232;43.944;2023-03-01T16:40:32;4.57;;;2.40;;
69979;SDS011;57318;56.232;43.944;2023-03-01T16:42:58;7.53;;;3.43;;
69979;SDS011;57318;56.232;43.944;2023-03-01T16:45:28;6.95;;;3.40;;
69979;SDS011;57318;56.232;43.944;2023-03-01T16:48:00;9.38;;;2.95;;
69979;SDS011;57318;56.232;43.944;2023-03-01T16:50:26;7.55;;;3.08;;
69979;SDS011;57318;56.232;43.944;2023-03-01T16:52:52;6.57;;;2.55;;
69979;SDS011;57318;56.232;43.944;2023-03-01T16:55:18;7.53;;;2.87;;
69979;SDS011;57318;56.232;43.944;2023-03-01T16:57:44;6.18;;;2.10;;
69979;SDS011;57318;56.232;43.944;2023-03-01T17:00:10;5.70;;;2.30;;
69979;SDS011;57318;56.232;43.944;2023-03-01T17:02:38;6.18;;;2.72;;
69979;SDS011;57318;56.232;43.944;2023-03-01T17:05:06;3.92;;;1.98;;
69979;SDS011;57318;56.232;43.944;2023-03-01T17:07:32;3.30;;;2.03;;
69979;SDS011;57318;56.232;43.944;2023-03-01T17:10:00;2.90;;;1.80;;
69979;SDS011;57318;56.232;43.944;2023-03-01T17:12:28;2.40;;;1.30;;
69979;SDS011;57318;56.232;43.944;2023-03-01T17:14:58;3.75;;;1.80;;
69979;SDS011;57318;56.232;43.944;2023-03-01T17:17:23;3.95;;;1.77;;
69979;SDS011;57318;56.232;43.944;2023-03-01T17:19:49;2.90;;;1.60;;
69979;SDS011;57318;56.232;43.944;2023-03-01T17:22:15;2.60;;;1.60;;
69979;SDS011;57318;56.232;43.944;2023-03-01T17:24:42;3.63;;;1.90;;
69979;SDS011;57318;56.232;43.944;2023-03-01T17:27:11;4.78;;;1.27;;
69979;SDS011;57318;56.232;43.944;2023-03-01T17:29:38;3.47;;;1.50;;
69979;SDS011;57318;56.232;43.944;2023-03-01T17:32:10;2.83;;;1.40;;